sensor_id;sensor_type;location;lat;lon;timestamp;temperature;humidity
23713;DHT22;12035;49.978;8.298;2023-04-08T00:04:41;12.60;68.80
23713;DHT22;12035;49.978;8.298;2023-04-08T00:09:39;12.60;68.90
23713;DHT22;12035;49.978;8.298;2023-04-08T00:14:36;12.60;69.00
23713;DHT22;12035;49.978;8.298;2023-04-08T00:19:36;12.60;68.90
23713;DHT22;12035;49.978;8.298;2023-04-08T00:24:33;12.60;68.90
23713;DHT22;12035;49.978;8.298;2023-04-08T00:29:32;12.50;68.80
23713;DHT22;12035;49.978;8.298;2023-04-08T00:34:29;12.50;69.00
23713;DHT22;12035;49.978;8.298;2023-04-08T00:39:26;12.50;69.10
23713;DHT22;12035;49.978;8.298;2023-04-08T00:44:23;12.50;69.10
23713;DHT22;12035;49.978;8.298;2023-04-08T00:49:21;12.40;69.20
23713;DHT22;12035;49.978;8.298;2023-04-08T00:54:18;12.40;69.50
23713;DHT22;12035;49.978;8.298;2023-04-08T00:59:17;12.40;69.40
23713;DHT22;12035;49.978;8.298;2023-04-08T01:04:22;12.30;69.60
23713;DHT22;12035;49.978;8.298;2023-04-08T01:09:26;12.30;69.80
23713;DHT22;12035;49.978;8.298;2023-04-08T01:14:25;12.30;69.70
23713;DHT22;12035;49.978;8.298;2023-04-08T01:19:27;12.30;69.80
23713;DHT22;12035;49.978;8.298;2023-04-08T01:24:28;12.30;70.00
23713;DHT22;12035;49.978;8.298;2023-04-08T01:29:28;12.30;70.00
23713;DHT22;12035;49.978;8.298;2023-04-08T01:34:27;12.30;70.00
23713;DHT22;12035;49.978;8.298;2023-04-08T01:39:26;12.40;70.10
23713;DHT22;12035;49.978;8.298;2023-04-08T01:44:25;12.30;70.10
23713;DHT22;12035;49.978;8.298;2023-04-08T01:49:26;12.40;70.20
23713;DHT22;12035;49.978;8.298;2023-04-08T01:54:23;12.30;70.10
23713;DHT22;12035;49.978;8.298;2023-04-08T01:59:20;12.40;70.20
23713;DHT22;12035;49.978;8.298;2023-04-08T02:04:20;12.40;70.20
23713;DHT22;12035;49.978;8.298;2023-04-08T02:09:17;12.40;70.30
23713;DHT22;12035;49.978;8.298;2023-04-08T02:14:15;12.40;70.20
23713;DHT22;12035;49.978;8.298;2023-04-08T02:19:14;12.40;70.20
23713;DHT22;12035;49.978;8.298;2023-04-08T02:24:17;12.40;70.40
23713;DHT22;12035;49.978;8.298;2023-04-08T02:29:15;12.40;70.40
23713;DHT22;12035;49.978;8.298;2023-04-08T02:34:13;12.40;70.40
23713;DHT22;12035;49.978;8.298;2023-04-08T02:39:11;12.40;70.40
23713;DHT22;12035;49.978;8.298;2023-04-08T02:44:09;12.40;70.30
23713;DHT22;12035;49.978;8.298;2023-04-08T02:49:06;12.30;70.30
23713;DHT22;12035;49.978;8.298;2023-04-08T02:54:04;12.30;70.30
23713;DHT22;12035;49.978;8.298;2023-04-08T02:59:01;12.20;70.10
23713;DHT22;12035;49.978;8.298;2023-04-08T03:04:00;12.20;70.10
23713;DHT22;12035;49.978;8.298;2023-04-08T03:08:57;12.10;70.10
23713;DHT22;12035;49.978;8.298;2023-04-08T03:13:54;12.00;70.10
23713;DHT22;12035;49.978;8.298;2023-04-08T03:18:51;12.00;70.10
23713;DHT22;12035;49.978;8.298;2023-04-08T03:23:50;11.90;70.30
23713;DHT22;12035;49.978;8.298;2023-04-08T03:28:47;11.80;70.30
23713;DHT22;12035;49.978;8.298;2023-04-08T03:33:44;11.80;70.40
23713;DHT22;12035;49.978;8.298;2023-04-08T03:38:42;11.70;70.20
23713;DHT22;12035;49.978;8.298;2023-04-08T03:43:41;11.70;70.40
23713;DHT22;12035;49.978;8.298;2023-04-08T03:48:38;11.60;70.40
23713;DHT22;12035;49.978;8.298;2023-04-08T03:53:35;11.60;70.40
23713;DHT22;12035;49.978;8.298;2023-04-08T03:58:32;11.50;70.40
23713;DHT22;12035;49.978;8.298;2023-04-08T04:03:31;11.40;70.40
23713;DHT22;12035;49.978;8.298;2023-04-08T04:08:28;11.40;70.40
23713;DHT22;12035;49.978;8.298;2023-04-08T04:13:25;11.30;70.50
23713;DHT22;12035;49.978;8.298;2023-04-08T04:18:22;11.30;70.60
23713;DHT22;12035;49.978;8.298;2023-04-08T04:23:20;11.20;70.50
23713;DHT22;12035;49.978;8.298;2023-04-08T04:28:18;11.20;70.70
23713;DHT22;12035;49.978;8.298;2023-04-08T04:33:15;11.10;70.60
23713;DHT22;12035;49.978;8.298;2023-04-08T04:38:13;11.10;70.70
23713;DHT22;12035;49.978;8.298;2023-04-08T04:43:12;11.00;70.40
23713;DHT22;12035;49.978;8.298;2023-04-08T04:48:09;11.00;70.40
23713;DHT22;12035;49.978;8.298;2023-04-08T04:53:06;10.90;70.40
23713;DHT22;12035;49.978;8.298;2023-04-08T04:58:03;10.90;70.50
23713;DHT22;12035;49.978;8.298;2023-04-08T05:03:01;10.90;70.60
23713;DHT22;12035;49.978;8.298;2023-04-08T05:07:59;10.80;70.80
23713;DHT22;12035;49.978;8.298;2023-04-08T05:12:56;10.80;70.80
23713;DHT22;12035;49.978;8.298;2023-04-08T05:17:53;10.80;71.00
23713;DHT22;12035;49.978;8.298;2023-04-08T05:22:51;10.80;71.10
23713;DHT22;12035;49.978;8.298;2023-04-08T05:27:48;10.80;71.40
23713;DHT22;12035;49.978;8.298;2023-04-08T05:32:45;10.80;71.60
23713;DHT22;12035;49.978;8.298;2023-04-08T05:37:42;10.90;72.50
23713;DHT22;12035;49.978;8.298;2023-04-08T05:42:41;11.30;74.00
23713;DHT22;12035;49.978;8.298;2023-04-08T05:47:38;11.90;75.00
23713;DHT22;12035;49.978;8.298;2023-04-08T05:52:35;12.70;75.30
23713;DHT22;12035;49.978;8.298;2023-04-08T05:57:32;13.60;74.40
23713;DHT22;12035;49.978;8.298;2023-04-08T06:02:31;14.60;73.70
23713;DHT22;12035;49.978;8.298;2023-04-08T06:07:28;15.50;72.40
23713;DHT22;12035;49.978;8.298;2023-04-08T06:12:25;16.40;71.90
23713;DHT22;12035;49.978;8.298;2023-04-08T06:17:23;17.20;70.30
23713;DHT22;12035;49.978;8.298;2023-04-08T06:22:22;18.10;68.20
23713;DHT22;12035;49.978;8.298;2023-04-08T06:27:19;18.80;64.70
23713;DHT22;12035;49.978;8.298;2023-04-08T06:32:16;19.10;60.80
23713;DHT22;12035;49.978;8.298;2023-04-08T06:37:14;18.90;58.40
23713;DHT22;12035;49.978;8.298;2023-04-08T06:42:12;18.50;57.50
23713;DHT22;12035;49.978;8.298;2023-04-08T06:47:10;18.00;57.10
23713;DHT22;12035;49.978;8.298;2023-04-08T06:52:07;17.40;57.50
23713;DHT22;12035;49.978;8.298;2023-04-08T06:57:04;17.00;57.70
23713;DHT22;12035;49.978;8.298;2023-04-08T07:02:03;16.60;58.10
23713;DHT22;12035;49.978;8.298;2023-04-08T07:07:00;16.30;58.20
23713;DHT22;12035;49.978;8.298;2023-04-08T07:11:57;15.90;58.60
23713;DHT22;12035;49.978;8.298;2023-04-08T07:16:54;15.70;59.00
23713;DHT22;12035;49.978;8.298;2023-04-08T07:21:53;15.50;59.00
23713;DHT22;12035;49.978;8.298;2023-04-08T07:26:50;15.10;58.70
23713;DHT22;12035;49.978;8.298;2023-04-08T07:31:48;14.60;58.90
23713;DHT22;12035;49.978;8.298;2023-04-08T07:36:46;14.20;59.60
23713;DHT22;12035;49.978;8.298;2023-04-08T07:41:44;13.90;60.10
23713;DHT22;12035;49.978;8.298;2023-04-08T07:46:41;13.70;61.00
23713;DHT22;12035;49.978;8.298;2023-04-08T07:51:40;13.40;61.50
23713;DHT22;12035;49.978;8.298;2023-04-08T07:56:37;13.20;62.30
23713;DHT22;12035;49.978;8.298;2023-04-08T08:01:36;13.00;62.70
23713;DHT22;12035;49.978;8.298;2023-04-08T08:06:33;12.90;63.40
23713;DHT22;12035;49.978;8.298;2023-04-08T08:11:32;12.80;63.90
23713;DHT22;12035;49.978;8.298;2023-04-08T08:16:30;12.80;64.10
23713;DHT22;12035;49.978;8.298;2023-04-08T08:21:29;12.90;64.30
23713;DHT22;12035;49.978;8.298;2023-04-08T08:26:26;12.90;64.40
23713;DHT22;12035;49.978;8.298;2023-04-08T08:31:24;12.90;64.10
23713;DHT22;12035;49.978;8.298;2023-04-08T08:36:21;13.00;63.80
23713;DHT22;12035;49.978;8.298;2023-04-08T08:41:20;13.00;63.90
23713;DHT22;12035;49.978;8.298;2023-04-08T08:46:18;13.00;63.90
23713;DHT22;12035;49.978;8.298;2023-04-08T08:51:15;13.10;64.20
23713;DHT22;12035;49.978;8.298;2023-04-08T08:56:12;13.00;64.20
23713;DHT22;12035;49.978;8.298;2023-04-08T09:01:33;13.10;64.20
23713;DHT22;12035;49.978;8.298;2023-04-08T09:06:31;13.10;64.20
23713;DHT22;12035;49.978;8.298;2023-04-08T09:11:29;13.10;64.20
23713;DHT22;12035;49.978;8.298;2023-04-08T09:16:26;13.00;64.20
23713;DHT22;12035;49.978;8.298;2023-04-08T09:21:24;13.00;64.40
23713;DHT22;12035;49.978;8.298;2023-04-08T09:26:23;13.00;64.50
23713;DHT22;12035;49.978;8.298;2023-04-08T09:31:23;13.10;64.50
23713;DHT22;12035;49.978;8.298;2023-04-08T09:36:22;13.10;64.50
23713;DHT22;12035;49.978;8.298;2023-04-08T09:41:22;13.10;65.00
23713;DHT22;12035;49.978;8.298;2023-04-08T09:46:25;13.00;65.20
23713;DHT22;12035;49.978;8.298;2023-04-08T09:51:23;13.00;65.60
23713;DHT22;12035;49.978;8.298;2023-04-08T09:56:23;13.00;65.90
23713;DHT22;12035;49.978;8.298;2023-04-08T10:01:27;13.00;66.80
23713;DHT22;12035;49.978;8.298;2023-04-08T10:06:27;13.10;66.80
23713;DHT22;12035;49.978;8.298;2023-04-08T10:11:27;13.00;66.80
23713;DHT22;12035;49.978;8.298;2023-04-08T10:16:25;13.10;66.70
23713;DHT22;12035;49.978;8.298;2023-04-08T10:21:33;13.30;66.70
23713;DHT22;12035;49.978;8.298;2023-04-08T10:26:40;13.40;66.30
23713;DHT22;12035;49.978;8.298;2023-04-08T10:31:39;13.60;66.40
23713;DHT22;12035;49.978;8.298;2023-04-08T10:36:36;13.70;64.90
23713;DHT22;12035;49.978;8.298;2023-04-08T10:41:33;13.90;63.20
23713;DHT22;12035;49.978;8.298;2023-04-08T10:46:37;14.10;61.70
23713;DHT22;12035;49.978;8.298;2023-04-08T10:51:34;14.10;60.00
23713;DHT22;12035;49.978;8.298;2023-04-08T10:56:32;14.20;59.30
23713;DHT22;12035;49.978;8.298;2023-04-08T11:01:38;14.30;59.00
23713;DHT22;12035;49.978;8.298;2023-04-08T11:06:36;14.50;58.70
23713;DHT22;12035;49.978;8.298;2023-04-08T11:11:33;14.60;58.70
23713;DHT22;12035;49.978;8.298;2023-04-08T11:16:31;14.80;58.40
23713;DHT22;12035;49.978;8.298;2023-04-08T11:21:29;15.00;58.10
23713;DHT22;12035;49.978;8.298;2023-04-08T11:26:27;15.20;57.40
23713;DHT22;12035;49.978;8.298;2023-04-08T11:31:24;15.20;56.80
23713;DHT22;12035;49.978;8.298;2023-04-08T11:36:22;15.30;56.70
23713;DHT22;12035;49.978;8.298;2023-04-08T11:41:20;15.30;56.40
23713;DHT22;12035;49.978;8.298;2023-04-08T11:46:18;15.30;56.10
23713;DHT22;12035;49.978;8.298;2023-04-08T11:51:15;15.40;56.20
23713;DHT22;12035;49.978;8.298;2023-04-08T11:56:16;15.40;55.80
23713;DHT22;12035;49.978;8.298;2023-04-08T12:01:16;15.50;55.40
23713;DHT22;12035;49.978;8.298;2023-04-08T12:06:13;15.60;55.60
23713;DHT22;12035;49.978;8.298;2023-04-08T12:11:10;15.80;55.90
23713;DHT22;12035;49.978;8.298;2023-04-08T12:16:10;16.00;55.90
23713;DHT22;12035;49.978;8.298;2023-04-08T12:21:10;16.10;55.60
23713;DHT22;12035;49.978;8.298;2023-04-08T12:26:07;16.30;55.50
23713;DHT22;12035;49.978;8.298;2023-04-08T12:31:05;16.50;55.80
23713;DHT22;12035;49.978;8.298;2023-04-08T12:36:02;16.60;55.40
23713;DHT22;12035;49.978;8.298;2023-04-08T12:41:01;16.70;54.90
23713;DHT22;12035;49.978;8.298;2023-04-08T12:45:58;16.70;54.50
23713;DHT22;12035;49.978;8.298;2023-04-08T12:50:56;16.70;54.30
23713;DHT22;12035;49.978;8.298;2023-04-08T12:55:53;16.70;54.50
23713;DHT22;12035;49.978;8.298;2023-04-08T13:00:53;16.70;54.40
23713;DHT22;12035;49.978;8.298;2023-04-08T13:05:50;16.80;54.50
23713;DHT22;12035;49.978;8.298;2023-04-08T13:10:48;16.80;54.70
23713;DHT22;12035;49.978;8.298;2023-04-08T13:15:45;16.80;54.70
23713;DHT22;12035;49.978;8.298;2023-04-08T13:20:44;16.90;54.40
23713;DHT22;12035;49.978;8.298;2023-04-08T13:25:43;16.90;54.40
23713;DHT22;12035;49.978;8.298;2023-04-08T13:30:41;16.90;54.30
23713;DHT22;12035;49.978;8.298;2023-04-08T13:35:38;16.90;54.20
23713;DHT22;12035;49.978;8.298;2023-04-08T13:40:36;16.80;54.10
23713;DHT22;12035;49.978;8.298;2023-04-08T13:45:33;16.80;54.40
23713;DHT22;12035;49.978;8.298;2023-04-08T13:50:30;16.90;54.60
23713;DHT22;12035;49.978;8.298;2023-04-08T13:55:28;17.00;54.70
23713;DHT22;12035;49.978;8.298;2023-04-08T14:00:28;17.10;54.50
23713;DHT22;12035;49.978;8.298;2023-04-08T14:05:25;17.10;54.10
23713;DHT22;12035;49.978;8.298;2023-04-08T14:10:23;17.20;54.00
23713;DHT22;12035;49.978;8.298;2023-04-08T14:15:20;17.30;54.10
23713;DHT22;12035;49.978;8.298;2023-04-08T14:20:22;17.30;53.60
23713;DHT22;12035;49.978;8.298;2023-04-08T14:25:30;17.30;53.50
23713;DHT22;12035;49.978;8.298;2023-04-08T14:30:28;17.30;53.60
23713;DHT22;12035;49.978;8.298;2023-04-08T14:35:27;17.40;53.60
23713;DHT22;12035;49.978;8.298;2023-04-08T14:40:24;17.20;53.30
23713;DHT22;12035;49.978;8.298;2023-04-08T14:45:22;16.90;53.40
23713;DHT22;12035;49.978;8.298;2023-04-08T14:50:19;16.70;54.00
23713;DHT22;12035;49.978;8.298;2023-04-08T14:55:18;16.50;54.40
23713;DHT22;12035;49.978;8.298;2023-04-08T15:00:16;16.30;54.90
23713;DHT22;12035;49.978;8.298;2023-04-08T15:05:14;16.20;55.10
23713;DHT22;12035;49.978;8.298;2023-04-08T15:10:11;16.00;55.50
23713;DHT22;12035;49.978;8.298;2023-04-08T15:15:10;15.90;55.90
23713;DHT22;12035;49.978;8.298;2023-04-08T15:20:08;15.80;56.10
23713;DHT22;12035;49.978;8.298;2023-04-08T15:25:07;15.70;56.30
23713;DHT22;12035;49.978;8.298;2023-04-08T15:30:06;15.60;56.40
23713;DHT22;12035;49.978;8.298;2023-04-08T15:35:07;15.60;56.60
23713;DHT22;12035;49.978;8.298;2023-04-08T15:40:06;15.50;56.70
23713;DHT22;12035;49.978;8.298;2023-04-08T15:45:05;15.40;56.60
23713;DHT22;12035;49.978;8.298;2023-04-08T15:50:05;15.30;56.40
23713;DHT22;12035;49.978;8.298;2023-04-08T15:55:05;15.30;56.40
23713;DHT22;12035;49.978;8.298;2023-04-08T16:00:07;15.20;56.80
23713;DHT22;12035;49.978;8.298;2023-04-08T16:05:07;15.10;56.80
23713;DHT22;12035;49.978;8.298;2023-04-08T16:10:07;15.10;56.90
23713;DHT22;12035;49.978;8.298;2023-04-08T16:15:05;15.00;57.00
23713;DHT22;12035;49.978;8.298;2023-04-08T16:20:07;15.10;57.20
23713;DHT22;12035;49.978;8.298;2023-04-08T16:25:06;15.10;57.30
23713;DHT22;12035;49.978;8.298;2023-04-08T16:30:04;15.10;57.40
23713;DHT22;12035;49.978;8.298;2023-04-08T16:35:02;15.10;57.40
23713;DHT22;12035;49.978;8.298;2023-04-08T16:40:01;15.20;57.50
23713;DHT22;12035;49.978;8.298;2023-04-08T16:44:59;15.10;57.40
23713;DHT22;12035;49.978;8.298;2023-04-08T16:49:56;15.20;57.40
23713;DHT22;12035;49.978;8.298;2023-04-08T16:54:53;15.30;57.50
23713;DHT22;12035;49.978;8.298;2023-04-08T16:59:54;15.30;57.40
23713;DHT22;12035;49.978;8.298;2023-04-08T17:04:52;15.30;57.20
23713;DHT22;12035;49.978;8.298;2023-04-08T17:09:50;15.30;57.20
23713;DHT22;12035;49.978;8.298;2023-04-08T17:14:47;15.30;57.20
23713;DHT22;12035;49.978;8.298;2023-04-08T17:19:48;15.30;57.40
23713;DHT22;12035;49.978;8.298;2023-04-08T17:24:46;15.30;57.40
23713;DHT22;12035;49.978;8.298;2023-04-08T17:29:44;15.30;57.50
23713;DHT22;12035;49.978;8.298;2023-04-08T17:34:41;15.30;57.50
23713;DHT22;12035;49.978;8.298;2023-04-08T17:39:40;15.30;57.50
23713;DHT22;12035;49.978;8.298;2023-04-08T17:44:38;15.20;57.50
23713;DHT22;12035;49.978;8.298;2023-04-08T17:49:37;15.10;57.70
23713;DHT22;12035;49.978;8.298;2023-04-08T17:54:34;15.10;57.80
23713;DHT22;12035;49.978;8.298;2023-04-08T17:59:33;15.00;57.90
23713;DHT22;12035;49.978;8.298;2023-04-08T18:04:30;14.90;58.10
23713;DHT22;12035;49.978;8.298;2023-04-08T18:09:27;14.80;58.30
23713;DHT22;12035;49.978;8.298;2023-04-08T18:14:26;14.80;58.40
23713;DHT22;12035;49.978;8.298;2023-04-08T18:19:25;14.80;58.10
23713;DHT22;12035;49.978;8.298;2023-04-08T18:24:22;14.70;58.00
23713;DHT22;12035;49.978;8.298;2023-04-08T18:29:19;14.70;58.00
23713;DHT22;12035;49.978;8.298;2023-04-08T18:34:17;14.60;58.00
23713;DHT22;12035;49.978;8.298;2023-04-08T18:39:21;14.50;58.10
23713;DHT22;12035;49.978;8.298;2023-04-08T18:44:18;14.40;58.10
23713;DHT22;12035;49.978;8.298;2023-04-08T18:49:16;14.30;57.50
23713;DHT22;12035;49.978;8.298;2023-04-08T18:54:13;14.20;57.10
23713;DHT22;12035;49.978;8.298;2023-04-08T18:59:11;14.20;56.40
23713;DHT22;12035;49.978;8.298;2023-04-08T19:04:11;14.10;55.20
23713;DHT22;12035;49.978;8.298;2023-04-08T19:09:11;14.10;55.60
23713;DHT22;12035;49.978;8.298;2023-04-08T19:14:14;14.10;55.60
23713;DHT22;12035;49.978;8.298;2023-04-08T19:19:12;14.10;55.70
23713;DHT22;12035;49.978;8.298;2023-04-08T19:24:17;14.20;55.80
23713;DHT22;12035;49.978;8.298;2023-04-08T19:29:16;14.20;55.70
23713;DHT22;12035;49.978;8.298;2023-04-08T19:34:17;14.10;55.90
23713;DHT22;12035;49.978;8.298;2023-04-08T19:39:14;14.00;56.00
23713;DHT22;12035;49.978;8.298;2023-04-08T19:44:11;14.00;56.20
23713;DHT22;12035;49.978;8.298;2023-04-08T19:49:22;13.90;56.20
23713;DHT22;12035;49.978;8.298;2023-04-08T19:54:20;13.80;56.40
23713;DHT22;12035;49.978;8.298;2023-04-08T19:59:17;13.80;56.50
23713;DHT22;12035;49.978;8.298;2023-04-08T20:04:20;13.80;56.50
23713;DHT22;12035;49.978;8.298;2023-04-08T20:09:19;13.80;56.40
23713;DHT22;12035;49.978;8.298;2023-04-08T20:14:17;13.80;56.50
23713;DHT22;12035;49.978;8.298;2023-04-08T20:19:14;13.80;56.20
23713;DHT22;12035;49.978;8.298;2023-04-08T20:24:14;13.70;56.40
23713;DHT22;12035;49.978;8.298;2023-04-08T20:29:12;13.70;56.40
23713;DHT22;12035;49.978;8.298;2023-04-08T20:34:11;13.70;56.30
23713;DHT22;12035;49.978;8.298;2023-04-08T20:39:09;13.70;56.40
23713;DHT22;12035;49.978;8.298;2023-04-08T20:44:08;13.70;56.30
23713;DHT22;12035;49.978;8.298;2023-04-08T20:49:06;13.70;56.30
23713;DHT22;12035;49.978;8.298;2023-04-08T20:54:04;13.70;56.20
23713;DHT22;12035;49.978;8.298;2023-04-08T20:59:04;13.70;56.10
23713;DHT22;12035;49.978;8.298;2023-04-08T21:04:03;13.60;56.10
23713;DHT22;12035;49.978;8.298;2023-04-08T21:09:00;13.50;56.00
23713;DHT22;12035;49.978;8.298;2023-04-08T21:14:00;13.50;56.10
23713;DHT22;12035;49.978;8.298;2023-04-08T21:18:59;13.30;56.10
23713;DHT22;12035;49.978;8.298;2023-04-08T21:23:59;13.20;56.30
23713;DHT22;12035;49.978;8.298;2023-04-08T21:28:57;13.10;56.50
23713;DHT22;12035;49.978;8.298;2023-04-08T21:33:54;13.00;56.60
23713;DHT22;12035;49.978;8.298;2023-04-08T21:38:52;12.90;56.80
23713;DHT22;12035;49.978;8.298;2023-04-08T21:43:50;12.90;57.00
23713;DHT22;12035;49.978;8.298;2023-04-08T21:48:48;12.80;57.00
23713;DHT22;12035;49.978;8.298;2023-04-08T21:53:45;12.90;57.10
23713;DHT22;12035;49.978;8.298;2023-04-08T21:58:44;12.80;57.70
23713;DHT22;12035;49.978;8.298;2023-04-08T22:03:45;12.70;57.10
23713;DHT22;12035;49.978;8.298;2023-04-08T22:08:44;12.70;57.10
23713;DHT22;12035;49.978;8.298;2023-04-08T22:13:51;12.70;57.20
23713;DHT22;12035;49.978;8.298;2023-04-08T22:18:53;12.60;57.20
23713;DHT22;12035;49.978;8.298;2023-04-08T22:23:51;12.60;57.40
23713;DHT22;12035;49.978;8.298;2023-04-08T22:28:48;12.60;57.40
23713;DHT22;12035;49.978;8.298;2023-04-08T22:33:47;12.60;57.40
23713;DHT22;12035;49.978;8.298;2023-04-08T22:38:45;12.60;57.40
23713;DHT22;12035;49.978;8.298;2023-04-08T22:43:43;12.60;57.50
23713;DHT22;12035;49.978;8.298;2023-04-08T22:48:41;12.50;57.60
23713;DHT22;12035;49.978;8.298;2023-04-08T22:53:38;12.50;57.60
23713;DHT22;12035;49.978;8.298;2023-04-08T22:58:36;12.40;57.70
23713;DHT22;12035;49.978;8.298;2023-04-08T23:03:34;12.30;57.90
23713;DHT22;12035;49.978;8.298;2023-04-08T23:08:32;12.30;58.00
23713;DHT22;12035;49.978;8.298;2023-04-08T23:13:29;12.40;58.10
23713;DHT22;12035;49.978;8.298;2023-04-08T23:18:28;12.30;58.20
23713;DHT22;12035;49.978;8.298;2023-04-08T23:23:31;12.20;58.30
23713;DHT22;12035;49.978;8.298;2023-04-08T23:28:28;12.20;58.20
23713;DHT22;12035;49.978;8.298;2023-04-08T23:33:41;12.20;58.20
23713;DHT22;12035;49.978;8.298;2023-04-08T23:38:58;12.10;58.30
23713;DHT22;12035;49.978;8.298;2023-04-08T23:43:55;12.10;58.30
23713;DHT22;12035;49.978;8.298;2023-04-08T23:48:55;12.10;58.30
23713;DHT22;12035;49.978;8.298;2023-04-08T23:53:52;12.10;58.30
23713;DHT22;12035;49.978;8.298;2023-04-08T23:58:49;12.10;58.30
